Time;durP1;ratioP1;P1;durP2;ratioP2;P2;SDS_P1;SDS_P2;PMS_P1;PMS_P2;Temp;Humidity;BMP_temperature;BMP_pressure;BME280_temperature;BME280_humidity;BME280_pressure;Samples;Min_cycle;Max_cycle;Signal;HPM_P1;HPM_P2
2024/02/13 00:00:06;;;;;;;8.70;4.25;;;5.60;99.90;;;;;;5072317;28;20036;-57
2024/02/13 00:02:32;;;;;;;7.05;4.60;;;5.60;99.90;;;;;;5073499;28;20028;-58
2024/02/13 00:04:57;;;;;;;7.78;4.10;;;5.60;99.90;;;;;;5072093;28;20043;-57
2024/02/13 00:07:23;;;;;;;5.80;3.60;;;5.50;99.90;;;;;;5071167;28;20027;-57
2024/02/13 00:09:48;;;;;;;5.05;4.07;;;5.60;99.90;;;;;;5071098;28;20025;-58
2024/02/13 00:12:14;;;;;;;8.82;4.55;;;5.50;99.90;;;;;;5071166;28;20074;-58
2024/02/13 00:14:39;;;;;;;10.40;4.78;;;5.60;99.90;;;;;;5070824;28;20083;-57
2024/02/13 00:17:05;;;;;;;9.13;4.55;;;5.50;99.90;;;;;;5073506;28;20042;-57
2024/02/13 00:19:31;;;;;;;6.95;4.72;;;5.50;99.90;;;;;;5074792;28;20099;-57
2024/02/13 00:21:56;;;;;;;9.73;5.53;;;5.50;99.90;;;;;;5072022;28;20527;-57
2024/02/13 00:24:22;;;;;;;6.68;4.18;;;5.50;99.90;;;;;;5070555;28;20012;-57
2024/02/13 00:26:47;;;;;;;8.30;5.97;;;5.50;99.90;;;;;;5070804;28;20055;-57
2024/02/13 00:29:13;;;;;;;11.70;6.10;;;5.50;99.90;;;;;;5070689;28;20028;-57
2024/02/13 00:31:42;;;;;;;7.80;5.25;;;5.50;99.90;;;;;;5070523;28;20016;-57
2024/02/13 00:34:07;;;;;;;9.90;5.93;;;5.50;99.90;;;;;;5072592;28;20039;-57
2024/02/13 00:36:33;;;;;;;10.05;6.28;;;5.50;99.90;;;;;;5072442;28;20012;-57
2024/02/13 00:39:00;;;;;;;10.57;6.38;;;5.50;99.90;;;;;;5067263;28;20040;-57
2024/02/13 00:41:26;;;;;;;11.98;6.95;;;5.50;99.90;;;;;;5068987;28;20119;-58
2024/02/13 00:43:52;;;;;;;8.95;6.10;;;5.50;99.90;;;;;;5071749;28;20550;-58
2024/02/13 00:46:17;;;;;;;10.95;6.57;;;5.50;99.90;;;;;;5070096;28;20366;-58
2024/02/13 00:48:43;;;;;;;8.95;6.03;;;5.50;99.90;;;;;;5073264;28;20027;-57
2024/02/13 00:51:09;;;;;;;12.77;6.78;;;5.50;99.90;;;;;;5073123;28;20020;-58
2024/02/13 00:53:37;;;;;;;10.45;6.28;;;5.40;99.90;;;;;;5065720;28;20025;-57
2024/02/13 00:56:07;;;;;;;9.65;6.55;;;5.40;99.90;;;;;;5071944;28;20020;-57
2024/02/13 00:58:36;;;;;;;11.93;7.30;;;5.40;99.90;;;;;;5072779;28;20437;-57
2024/02/13 01:01:03;;;;;;;13.50;7.30;;;5.40;99.90;;;;;;5070166;28;20032;-57
2024/02/13 01:03:29;;;;;;;11.68;6.32;;;5.40;99.90;;;;;;5070825;28;20319;-57
2024/02/13 01:05:55;;;;;;;10.23;6.63;;;5.30;99.90;;;;;;5068134;28;20017;-57
2024/02/13 01:08:23;;;;;;;11.00;6.50;;;5.30;99.90;;;;;;5071911;28;20020;-57
2024/02/13 01:10:52;;;;;;;11.05;6.75;;;5.30;99.90;;;;;;5069410;28;20020;-57
2024/02/13 01:13:18;;;;;;;14.05;7.43;;;5.20;99.90;;;;;;5073286;28;20484;-57
2024/02/13 01:15:44;;;;;;;13.38;6.20;;;5.20;99.90;;;;;;5076429;28;20013;-57
2024/02/13 01:18:09;;;;;;;11.70;6.57;;;5.20;99.90;;;;;;5075716;28;20177;-57
2024/02/13 01:20:35;;;;;;;11.45;6.25;;;5.20;99.90;;;;;;5069245;28;20696;-58
2024/02/13 01:23:01;;;;;;;9.23;5.95;;;5.20;99.90;;;;;;5072901;28;20107;-57
2024/02/13 01:25:26;;;;;;;14.55;6.53;;;5.10;99.90;;;;;;5071364;28;20051;-58
2024/02/13 01:27:52;;;;;;;11.02;6.28;;;5.10;99.90;;;;;;5073415;28;20460;-57
2024/02/13 01:30:17;;;;;;;12.30;5.90;;;5.10;99.90;;;;;;5073009;28;20020;-57
2024/02/13 01:32:43;;;;;;;8.75;6.18;;;5.10;99.90;;;;;;5075374;28;20025;-57
2024/02/13 01:35:11;;;;;;;10.98;6.03;;;5.10;99.90;;;;;;5077115;28;20575;-57
2024/02/13 01:37:36;;;;;;;14.70;6.72;;;5.10;99.90;;;;;;5065846;28;20509;-57
2024/02/13 01:40:05;;;;;;;11.23;6.30;;;5.10;99.90;;;;;;5071471;28;20035;-57
2024/02/13 01:42:37;;;;;;;9.25;6.10;;;5.10;99.90;;;;;;5073137;28;20027;-57
2024/02/13 01:45:06;;;;;;;11.10;6.95;;;5.10;99.90;;;;;;5069702;28;20094;-57
2024/02/13 01:47:33;;;;;;;13.03;7.03;;;5.10;99.90;;;;;;5073251;28;20405;-57
2024/02/13 01:49:58;;;;;;;13.48;7.20;;;5.10;99.90;;;;;;5072753;28;20024;-57
2024/02/13 01:52:24;;;;;;;12.63;7.68;;;5.20;99.90;;;;;;5074510;28;20175;-57
2024/02/13 01:54:52;;;;;;;14.82;7.65;;;5.20;99.90;;;;;;5073883;28;20447;-57
2024/02/13 01:57:19;;;;;;;13.63;7.45;;;5.20;99.90;;;;;;5070725;28;20457;-57
2024/02/13 01:59:45;;;;;;;13.23;8.00;;;5.20;99.90;;;;;;5064851;28;20023;-57
2024/02/13 02:02:11;;;;;;;15.68;8.77;;;5.20;99.90;;;;;;5072070;28;20024;-58
2024/02/13 02:04:38;;;;;;;13.45;8.65;;;5.20;99.90;;;;;;5071775;28;20048;-57
2024/02/13 02:07:04;;;;;;;18.02;10.00;;;5.30;99.90;;;;;;5071753;28;20063;-57
2024/02/13 02:09:33;;;;;;;18.50;9.52;;;5.30;99.90;;;;;;5072060;28;20032;-57
2024/02/13 02:11:59;;;;;;;18.33;9.88;;;5.30;99.90;;;;;;5070241;28;20474;-57
2024/02/13 02:14:25;;;;;;;20.48;10.23;;;5.30;99.90;;;;;;5075303;28;20020;-57
2024/02/13 02:16:51;;;;;;;14.82;9.43;;;5.40;99.90;;;;;;5068404;28;20035;-57
2024/02/13 02:19:19;;;;;;;22.27;10.82;;;5.30;99.90;;;;;;5069551;28;20103;-57
2024/02/13 02:21:46;;;;;;;19.70;10.98;;;5.40;99.90;;;;;;5070851;28;20048;-57
2024/02/13 02:24:12;;;;;;;21.90;10.27;;;5.40;99.90;;;;;;5072763;28;20024;-57
2024/02/13 02:26:37;;;;;;;23.60;11.07;;;5.50;99.90;;;;;;5073407;28;20509;-57
2024/02/13 02:29:05;;;;;;;22.63;10.70;;;5.50;99.90;;;;;;5068757;28;20017;-57
2024/02/13 02:31:31;;;;;;;19.75;11.52;;;5.50;99.90;;;;;;5069774;28;20029;-57
2024/02/13 02:33:57;;;;;;;26.75;12.25;;;5.50;99.90;;;;;;5071050;28;20033;-57
2024/02/13 02:36:23;;;;;;;20.35;12.13;;;5.50;99.90;;;;;;5071291;28;20020;-57
2024/02/13 02:38:49;;;;;;;23.25;12.05;;;5.50;99.90;;;;;;5071314;28;20020;-57
2024/02/13 02:41:14;;;;;;;26.92;12.30;;;5.50;99.90;;;;;;5072801;28;20032;-57
2024/02/13 02:43:41;;;;;;;24.17;12.57;;;5.60;99.90;;;;;;5070828;28;20590;-57
2024/02/13 02:46:06;;;;;;;25.17;12.52;;;5.60;99.90;;;;;;5068865;28;20031;-56
2024/02/13 02:48:32;;;;;;;25.33;12.38;;;5.60;99.90;;;;;;5070555;28;20021;-56
2024/02/13 02:50:58;;;;;;;23.10;12.57;;;5.60;99.90;;;;;;5072657;28;20477;-56
2024/02/13 02:53:24;;;;;;;20.95;12.63;;;5.60;99.90;;;;;;5068375;28;20090;-55
2024/02/13 02:55:49;;;;;;;25.38;12.85;;;5.60;99.90;;;;;;5072233;28;20017;-56
2024/02/13 02:58:15;;;;;;;26.40;13.35;;;5.60;99.90;;;;;;5073814;28;20474;-56
2024/02/13 03:00:41;;;;;;;27.58;14.05;;;5.60;99.90;;;;;;5070485;28;20096;-56
2024/02/13 03:03:07;;;;;;;22.35;13.13;;;5.60;99.90;;;;;;5068609;28;20048;-56
2024/02/13 03:05:33;;;;;;;28.38;14.25;;;5.50;99.90;;;;;;5071970;28;20032;-56
2024/02/13 03:07:58;;;;;;;29.90;14.75;;;5.60;99.90;;;;;;5070072;28;20082;-56
2024/02/13 03:10:24;;;;;;;34.05;15.25;;;5.60;99.90;;;;;;5070115;28;20009;-56
2024/02/13 03:12:50;;;;;;;28.50;14.15;;;5.50;99.90;;;;;;5069928;28;20029;-57
2024/02/13 03:15:17;;;;;;;27.13;15.15;;;5.40;99.90;;;;;;5069233;28;20020;-57
2024/02/13 03:17:44;;;;;;;25.98;15.45;;;5.50;99.90;;;;;;5071627;28;20063;-57
2024/02/13 03:20:10;;;;;;;31.10;14.73;;;5.40;99.90;;;;;;5072802;28;20024;-56
2024/02/13 03:22:37;;;;;;;27.80;15.30;;;5.40;99.90;;;;;;5061802;28;20024;-57
2024/02/13 03:25:04;;;;;;;30.02;14.85;;;5.50;99.90;;;;;;5069489;28;20024;-57
2024/02/13 03:27:31;;;;;;;27.33;15.15;;;5.40;99.90;;;;;;5070557;28;20032;-57
2024/02/13 03:29:56;;;;;;;26.67;14.73;;;5.40;99.90;;;;;;5069448;28;20502;-57
2024/02/13 03:32:22;;;;;;;26.40;13.57;;;5.40;99.90;;;;;;5069277;28;20087;-57
2024/02/13 03:34:47;;;;;;;25.52;13.45;;;5.40;99.90;;;;;;5069190;28;20020;-56
2024/02/13 03:37:13;;;;;;;24.50;13.32;;;5.40;99.90;;;;;;5070305;28;20040;-57
2024/02/13 03:39:42;;;;;;;29.10;14.48;;;5.30;99.90;;;;;;5070571;28;20020;-56
2024/02/13 03:42:09;;;;;;;34.63;15.10;;;5.30;99.90;;;;;;5070154;28;20474;-57
2024/02/13 03:44:37;;;;;;;31.15;15.18;;;5.30;99.90;;;;;;5069165;28;20113;-57
2024/02/13 03:47:05;;;;;;;25.30;13.95;;;5.30;99.90;;;;;;5070140;28;20016;-57
2024/02/13 03:49:31;;;;;;;24.42;12.93;;;5.30;99.90;;;;;;5070552;28;20482;-57
2024/02/13 03:51:57;;;;;;;25.33;12.48;;;5.30;99.90;;;;;;5068956;28;20012;-57
2024/02/13 03:54:23;;;;;;;25.65;12.68;;;5.30;99.90;;;;;;5069460;28;20017;-57
2024/02/13 03:56:48;;;;;;;22.73;12.52;;;5.40;99.90;;;;;;5067862;28;20048;-57
2024/02/13 03:59:14;;;;;;;24.70;11.27;;;5.40;99.90;;;;;;5069036;28;20479;-57
2024/02/13 04:01:39;;;;;;;23.42;10.90;;;5.40;99.90;;;;;;5069745;28;20158;-57
2024/02/13 04:04:05;;;;;;;17.67;10.40;;;5.40;99.90;;;;;;5067220;28;20536;-57
2024/02/13 04:06:34;;;;;;;19.80;11.02;;;5.40;99.90;;;;;;5069770;28;20234;-57
2024/02/13 04:09:03;;;;;;;18.55;11.00;;;5.40;99.90;;;;;;5068371;28;20037;-57
2024/02/13 04:11:31;;;;;;;17.10;9.82;;;5.40;99.90;;;;;;5068219;28;20017;-56
2024/02/13 04:13:57;;;;;;;20.17;9.48;;;5.40;99.90;;;;;;5066809;28;20025;-57
2024/02/13 04:16:23;;;;;;;21.38;10.27;;;5.40;99.90;;;;;;5066790;28;20031;-57
2024/02/13 04:18:49;;;;;;;21.00;9.38;;;5.40;99.90;;;;;;5067476;28;20077;-56
2024/02/13 04:21:18;;;;;;;21.15;9.82;;;5.40;99.90;;;;;;5077900;28;20025;-56
2024/02/13 04:23:44;;;;;;;19.58;10.05;;;5.40;99.90;;;;;;5074852;28;20582;-56
2024/02/13 04:26:10;;;;;;;21.65;10.13;;;5.40;99.90;;;;;;5077897;28;20389;-57
2024/02/13 04:28:35;;;;;;;25.73;10.98;;;5.40;99.90;;;;;;5070233;28;20024;-56
2024/02/13 04:31:01;;;;;;;22.08;10.20;;;5.40;99.90;;;;;;5067948;28;20462;-56
2024/02/13 04:33:26;;;;;;;26.73;10.30;;;5.40;99.90;;;;;;5067155;28;20039;-57
2024/02/13 04:35:52;;;;;;;17.52;10.30;;;5.40;99.90;;;;;;5067361;28;20056;-57
2024/02/13 04:38:17;;;;;;;23.13;11.25;;;5.40;99.90;;;;;;5068083;28;20017;-57
2024/02/13 04:40:43;;;;;;;22.80;10.88;;;5.40;99.90;;;;;;5067288;28;20052;-57
2024/02/13 04:43:09;;;;;;;19.40;10.88;;;5.30;99.90;;;;;;5066728;28;20025;-57
2024/02/13 04:45:34;;;;;;;20.23;11.07;;;5.40;99.90;;;;;;5068485;28;20503;-57
2024/02/13 04:48:00;;;;;;;28.15;11.60;;;5.30;99.90;;;;;;5070983;28;20016;-57
2024/02/13 04:50:27;;;;;;;21.73;12.23;;;5.40;99.90;;;;;;5070870;28;20016;-57
2024/02/13 04:52:54;;;;;;;24.77;11.40;;;5.30;99.90;;;;;;5068332;28;20097;-57
2024/02/13 04:55:19;;;;;;;26.23;12.40;;;5.30;99.90;;;;;;5070448;28;20016;-57
2024/02/13 04:57:46;;;;;;;22.05;12.38;;;5.30;99.90;;;;;;5071739;28;20020;-57
2024/02/13 05:00:24;;;;;;;29.42;12.70;;;5.30;99.90;;;;;;5070047;28;20020;-57
2024/02/13 05:03:03;;;;;;;28.77;13.40;;;5.20;99.90;;;;;;5071032;28;20494;-57
2024/02/13 05:08:13;;;;;;;20.83;12.52;;;5.30;99.90;;;;;;5070278;28;20508;-57
2024/02/13 05:10:39;;;;;;;28.33;13.82;;;5.20;99.90;;;;;;5070419;28;20135;-58
2024/02/13 05:13:04;;;;;;;24.00;13.35;;;5.20;99.90;;;;;;5068153;28;20021;-57
2024/02/13 05:15:30;;;;;;;24.58;13.48;;;5.20;99.90;;;;;;5069547;28;20016;-57
2024/02/13 05:17:56;;;;;;;29.73;12.65;;;5.20;99.90;;;;;;5069848;28;20021;-57
2024/02/13 05:20:23;;;;;;;28.85;13.70;;;5.20;99.90;;;;;;5071191;28;20044;-57
2024/02/13 05:22:49;;;;;;;20.50;12.32;;;5.10;99.90;;;;;;5071338;28;20032;-57
2024/02/13 05:25:14;;;;;;;27.90;13.68;;;5.20;99.90;;;;;;5070126;28;20028;-57
2024/02/13 05:27:40;;;;;;;26.90;12.30;;;5.10;99.90;;;;;;5070462;28;20115;-57
2024/02/13 05:30:06;;;;;;;19.88;12.23;;;5.10;99.90;;;;;;5070491;28;20029;-57
2024/02/13 05:32:33;;;;;;;21.88;12.52;;;5.00;99.90;;;;;;5070431;28;20021;-57
2024/02/13 05:34:59;;;;;;;23.02;12.02;;;5.00;99.90;;;;;;5069992;28;20029;-57
2024/02/13 05:37:25;;;;;;;24.20;12.02;;;5.00;99.90;;;;;;5077284;28;20350;-57
2024/02/13 05:39:51;;;;;;;20.75;12.38;;;5.00;99.90;;;;;;5078204;28;20121;-58
2024/02/13 05:42:20;;;;;;;17.58;10.77;;;4.90;99.90;;;;;;5079028;28;20036;-58
2024/02/13 05:44:46;;;;;;;23.73;11.95;;;4.90;99.90;;;;;;5089800;28;20028;-57
2024/02/13 05:47:12;;;;;;;20.92;10.13;;;4.90;99.90;;;;;;5073217;28;20029;-58
2024/02/13 05:49:37;;;;;;;24.65;10.15;;;4.90;99.90;;;;;;5069653;28;20493;-57
2024/02/13 05:52:04;;;;;;;19.85;10.18;;;4.90;99.90;;;;;;5069746;28;20535;-57
2024/02/13 05:54:30;;;;;;;17.15;8.80;;;4.80;99.90;;;;;;5067621;28;20059;-57
2024/02/13 05:56:56;;;;;;;17.58;9.50;;;4.80;99.90;;;;;;5074230;28;20056;-57
2024/02/13 05:59:26;;;;;;;15.27;9.07;;;4.70;99.90;;;;;;5072689;28;20025;-57
2024/02/13 06:01:52;;;;;;;15.52;6.88;;;4.80;99.90;;;;;;5089682;28;20031;-58
2024/02/13 06:04:18;;;;;;;11.80;7.30;;;4.80;99.90;;;;;;5079870;28;20028;-58
2024/02/13 06:06:46;;;;;;;10.00;6.32;;;4.70;99.90;;;;;;5069591;28;20031;-57
2024/02/13 06:09:24;;;;;;;11.38;6.03;;;4.70;99.90;;;;;;5069393;28;20028;-57
2024/02/13 06:11:52;;;;;;;13.70;6.07;;;4.70;99.90;;;;;;5082607;28;20032;-57
2024/02/13 06:14:18;;;;;;;14.32;6.28;;;4.70;99.90;;;;;;5071369;28;20518;-56
2024/02/13 06:16:44;;;;;;;13.27;6.30;;;4.70;99.90;;;;;;5081735;28;20274;-56
2024/02/13 06:19:10;;;;;;;8.90;5.63;;;4.70;99.90;;;;;;5079474;28;20443;-57
2024/02/13 06:21:36;;;;;;;10.57;5.32;;;4.60;99.90;;;;;;5079777;28;20020;-51
2024/02/13 06:24:02;;;;;;;15.48;5.15;;;4.70;99.90;;;;;;5080607;28;20416;-56
2024/02/13 06:26:28;;;;;;;11.88;5.82;;;4.60;99.90;;;;;;5078518;28;20037;-56
2024/02/13 06:28:54;;;;;;;11.52;4.95;;;4.60;99.90;;;;;;5082544;28;20024;-56
2024/02/13 06:31:20;;;;;;;18.45;5.90;;;4.60;99.90;;;;;;5071761;28;20025;-56
2024/02/13 06:33:46;;;;;;;10.73;6.00;;;4.60;99.90;;;;;;5075580;28;20378;-56
2024/02/13 06:36:11;;;;;;;13.13;5.78;;;4.60;99.90;;;;;;5076319;28;20040;-56
2024/02/13 06:38:37;;;;;;;8.75;5.00;;;4.60;99.90;;;;;;5087440;28;20054;-57
2024/02/13 06:41:05;;;;;;;16.25;5.50;;;4.60;99.90;;;;;;5088109;28;20024;-57
2024/02/13 06:43:33;;;;;;;9.90;5.20;;;4.60;99.90;;;;;;5079031;28;20121;-56
2024/02/13 06:45:58;;;;;;;9.85;5.68;;;4.60;99.90;;;;;;5074483;28;20100;-57
2024/02/13 06:48:24;;;;;;;14.27;5.32;;;4.60;99.90;;;;;;5085821;28;20077;-57
2024/02/13 06:50:49;;;;;;;10.52;5.80;;;4.50;99.90;;;;;;5081568;28;20081;-56
2024/02/13 06:53:15;;;;;;;13.98;6.03;;;4.60;99.90;;;;;;5076193;28;20530;-56
2024/02/13 06:55:40;;;;;;;12.68;5.78;;;4.60;99.90;;;;;;5078031;28;20012;-57
2024/02/13 06:58:06;;;;;;;11.57;5.38;;;4.60;99.90;;;;;;5072940;28;20028;-57
2024/02/13 07:00:32;;;;;;;17.15;5.93;;;4.60;99.90;;;;;;5085496;28;20111;-57
2024/02/13 07:02:59;;;;;;;10.93;5.68;;;4.60;99.90;;;;;;5079991;28;20024;-57
2024/02/13 07:05:26;;;;;;;14.55;6.22;;;4.70;99.90;;;;;;5069880;28;20328;-57
2024/02/13 07:07:51;;;;;;;9.65;5.90;;;4.70;99.90;;;;;;5068109;28;20103;-57
2024/02/13 07:10:17;;;;;;;13.15;5.90;;;4.70;99.90;;;;;;5083538;28;20131;-57
2024/02/13 07:12:43;;;;;;;8.85;6.25;;;4.80;99.90;;;;;;5079270;28;20495;-57
2024/02/13 07:15:09;;;;;;;11.20;5.97;;;4.80;99.90;;;;;;5072310;28;20017;-57
2024/02/13 07:17:35;;;;;;;19.42;7.07;;;4.90;99.90;;;;;;5083600;28;20470;-57
2024/02/13 07:20:00;;;;;;;15.15;6.30;;;5.00;99.90;;;;;;5073277;28;20082;-57
2024/02/13 07:22:26;;;;;;;12.82;6.20;;;5.00;99.90;;;;;;5076366;28;20422;-57
2024/02/13 07:24:52;;;;;;;11.07;6.63;;;5.10;99.90;;;;;;5078561;28;20024;-57
2024/02/13 07:27:17;;;;;;;14.63;7.20;;;5.10;99.90;;;;;;5076640;28;20122;-57
2024/02/13 07:29:43;;;;;;;14.40;7.30;;;5.10;99.90;;;;;;5078503;28;20041;-57
2024/02/13 07:32:10;;;;;;;13.65;7.07;;;5.10;99.90;;;;;;5078914;28;20461;-57
2024/02/13 07:34:40;;;;;;;16.38;8.10;;;5.10;99.90;;;;;;5076864;28;20292;-58
2024/02/13 07:37:10;;;;;;;14.25;7.00;;;5.10;99.90;;;;;;5085936;28;20020;-57
2024/02/13 07:39:35;;;;;;;14.67;7.70;;;5.20;99.90;;;;;;5082053;28;20043;-57
2024/02/13 07:42:01;;;;;;;16.40;7.55;;;5.10;99.90;;;;;;5073862;28;20032;-57
2024/02/13 07:44:29;;;;;;;16.65;7.50;;;5.10;99.90;;;;;;5076830;28;20082;-57
2024/02/13 07:46:56;;;;;;;10.60;7.25;;;5.10;99.90;;;;;;5078542;28;20012;-57
2024/02/13 07:49:21;;;;;;;15.73;7.55;;;5.20;99.90;;;;;;5077453;28;20008;-57
2024/02/13 07:51:48;;;;;;;17.45;7.50;;;5.20;99.90;;;;;;5067996;28;20255;-57
2024/02/13 07:54:14;;;;;;;16.35;8.90;;;5.20;99.90;;;;;;5074435;28;20423;-57
2024/02/13 07:56:41;;;;;;;15.57;8.90;;;5.20;99.90;;;;;;5067538;28;20077;-57
2024/02/13 07:59:07;;;;;;;11.50;7.63;;;5.20;99.90;;;;;;5068074;28;20023;-57
2024/02/13 08:01:33;;;;;;;13.90;7.88;;;5.30;99.90;;;;;;5072871;28;20397;-57
2024/02/13 08:04:00;;;;;;;12.90;7.63;;;5.30;99.90;;;;;;5067489;28;20233;-57
2024/02/13 08:06:26;;;;;;;21.40;8.73;;;5.30;99.90;;;;;;5066146;28;20024;-57
2024/02/13 08:08:51;;;;;;;12.63;7.75;;;5.40;99.90;;;;;;5078485;28;20035;-57
2024/02/13 08:11:17;;;;;;;13.63;8.50;;;5.40;99.90;;;;;;5068881;28;20032;-57
2024/02/13 08:13:43;;;;;;;16.05;8.68;;;5.50;99.90;;;;;;5076859;28;20393;-57
2024/02/13 08:16:11;;;;;;;13.82;7.70;;;5.60;99.90;;;;;;5076614;28;20424;-57
2024/02/13 08:18:37;;;;;;;13.20;7.93;;;5.70;99.90;;;;;;5072727;28;20100;-57
2024/02/13 08:21:03;;;;;;;13.45;7.53;;;5.90;99.90;;;;;;5066657;28;20107;-57
2024/02/13 08:23:29;;;;;;;17.38;7.65;;;6.00;99.90;;;;;;5066978;28;20093;-58
2024/02/13 08:25:55;;;;;;;14.32;7.63;;;6.10;99.90;;;;;;5067613;28;20020;-57
2024/02/13 08:28:21;;;;;;;15.90;6.53;;;6.10;99.90;;;;;;5080599;28;20030;-57
2024/02/13 08:30:49;;;;;;;12.65;6.22;;;6.20;99.90;;;;;;5077249;28;20535;-57
2024/02/13 08:33:16;;;;;;;10.63;7.35;;;6.20;99.90;;;;;;5070263;28;20115;-57
2024/02/13 08:35:42;;;;;;;13.02;6.20;;;6.30;99.90;;;;;;5073843;28;20021;-57
2024/02/13 08:38:10;;;;;;;12.45;6.53;;;6.20;99.90;;;;;;5080303;28;20284;-58
2024/02/13 08:40:36;;;;;;;16.67;7.20;;;6.20;99.90;;;;;;5074105;28;20040;-57
2024/02/13 08:43:02;;;;;;;21.10;7.53;;;6.20;99.90;;;;;;5077489;28;20020;-57
2024/02/13 08:45:28;;;;;;;15.15;6.65;;;6.20;99.90;;;;;;5074658;28;20032;-57
2024/02/13 08:47:55;;;;;;;19.52;6.80;;;6.20;99.90;;;;;;5083881;28;20070;-57
2024/02/13 08:50:20;;;;;;;13.10;6.65;;;6.20;99.90;;;;;;5069312;28;20021;-57
2024/02/13 08:52:46;;;;;;;8.73;5.90;;;6.20;99.90;;;;;;5072045;28;20355;-57
2024/02/13 08:55:13;;;;;;;13.95;7.05;;;6.30;99.90;;;;;;5073241;28;20055;-57
2024/02/13 08:57:38;;;;;;;14.73;7.53;;;6.40;99.90;;;;;;5067515;28;20017;-57
2024/02/13 09:00:05;;;;;;;11.43;6.53;;;6.50;99.90;;;;;;5079051;28;20024;-57
2024/02/13 09:02:32;;;;;;;13.20;6.55;;;6.60;99.90;;;;;;5081035;28;20477;-57
2024/02/13 09:04:58;;;;;;;11.57;5.75;;;6.80;99.90;;;;;;5082937;28;20060;-57
2024/02/13 09:07:24;;;;;;;8.60;5.90;;;6.90;99.90;;;;;;5075080;28;20058;-57
2024/02/13 09:09:49;;;;;;;16.17;5.85;;;7.10;99.90;;;;;;5073320;28;20106;-57
2024/02/13 09:12:15;;;;;;;10.95;6.05;;;7.20;99.90;;;;;;5073604;28;20043;-57
2024/02/13 09:14:41;;;;;;;14.07;6.45;;;7.40;99.90;;;;;;5072734;28;20501;-57
2024/02/13 09:17:08;;;;;;;10.43;6.05;;;7.50;99.90;;;;;;5072932;28;20048;-57
2024/02/13 09:19:33;;;;;;;13.63;5.82;;;7.60;99.90;;;;;;5080462;28;20163;-57
2024/02/13 09:21:59;;;;;;;10.25;5.38;;;7.60;99.90;;;;;;5081361;28;20049;-57
2024/02/13 09:24:27;;;;;;;12.88;5.18;;;7.70;99.90;;;;;;5074350;28;20568;-57
2024/02/13 09:26:53;;;;;;;10.13;5.50;;;7.80;99.90;;;;;;5072914;28;20013;-57
2024/02/13 09:29:19;;;;;;;13.68;5.82;;;7.80;99.90;;;;;;5067010;28;20107;-57
2024/02/13 09:31:44;;;;;;;13.23;5.40;;;7.90;99.90;;;;;;5074839;28;20099;-57
2024/02/13 09:34:12;;;;;;;16.42;6.10;;;7.90;99.90;;;;;;5081825;28;20312;-58
2024/02/13 09:36:38;;;;;;;14.88;5.82;;;7.80;99.90;;;;;;5074066;28;20436;-57
2024/02/13 09:39:04;;;;;;;11.55;6.55;;;7.90;99.90;;;;;;5085247;28;20055;-57
2024/02/13 09:41:30;;;;;;;14.23;5.65;;;7.90;99.90;;;;;;5080326;28;20389;-57
2024/02/13 09:43:57;;;;;;;14.23;6.28;;;7.80;99.90;;;;;;5070369;28;20383;-57
2024/02/13 09:46:24;;;;;;;10.25;5.95;;;7.80;99.90;;;;;;5071734;28;20112;-57
2024/02/13 09:48:54;;;;;;;12.45;6.15;;;7.80;99.90;;;;;;5084488;28;20028;-57
2024/02/13 09:51:20;;;;;;;14.88;7.38;;;7.80;99.90;;;;;;5078320;28;20020;-57
2024/02/13 09:53:47;;;;;;;11.25;6.22;;;7.80;99.90;;;;;;5081570;28;20055;-57
2024/02/13 09:56:14;;;;;;;13.00;6.55;;;7.90;99.90;;;;;;5081430;28;20077;-57
2024/02/13 09:58:41;;;;;;;10.10;6.28;;;7.90;99.90;;;;;;5075442;28;20115;-57
2024/02/13 10:01:07;;;;;;;15.38;6.68;;;7.80;99.90;;;;;;5079142;28;20021;-57
2024/02/13 10:03:39;;;;;;;9.43;5.93;;;7.80;99.90;;;;;;5069846;28;20031;-57
2024/02/13 10:06:09;;;;;;;13.40;6.78;;;7.80;99.90;;;;;;5073635;28;20024;-57
2024/02/13 10:08:37;;;;;;;13.00;6.45;;;7.80;99.90;;;;;;5079824;28;20080;-57
2024/02/13 10:11:04;;;;;;;14.55;6.60;;;7.90;99.90;;;;;;5075466;28;20169;-58
2024/02/13 10:13:38;;;;;;;13.30;7.22;;;8.00;99.90;;;;;;5068128;28;20513;-57
2024/02/13 10:16:04;;;;;;;12.38;6.72;;;8.00;99.90;;;;;;5070745;28;20028;-57
2024/02/13 10:18:30;;;;;;;20.40;7.55;;;8.10;99.90;;;;;;5069580;28;20201;-57
2024/02/13 10:20:55;;;;;;;16.80;6.57;;;8.10;99.90;;;;;;5071245;28;20085;-57
2024/02/13 10:23:24;;;;;;;17.25;6.95;;;8.30;99.90;;;;;;5069230;28;20073;-57
2024/02/13 10:25:50;;;;;;;15.45;6.85;;;8.40;99.90;;;;;;5076908;28;20381;-57
2024/02/13 10:28:17;;;;;;;13.40;6.45;;;8.30;99.90;;;;;;5077222;28;20090;-57
2024/02/13 10:30:49;;;;;;;12.43;6.53;;;8.30;99.90;;;;;;5078589;28;20032;-57
2024/02/13 10:33:15;;;;;;;14.68;6.25;;;8.40;99.90;;;;;;5068755;28;20186;-58
2024/02/13 10:35:41;;;;;;;14.98;7.47;;;8.30;99.90;;;;;;5080161;28;20530;-57
2024/02/13 10:38:09;;;;;;;14.70;5.97;;;8.40;99.90;;;;;;5077447;28;20302;-58
2024/02/13 10:40:39;;;;;;;10.57;5.53;;;8.60;99.90;;;;;;5073669;28;20050;-57
2024/02/13 10:43:12;;;;;;;12.25;6.60;;;8.60;99.90;;;;;;5072558;28;20028;-57
2024/02/13 10:45:38;;;;;;;12.30;7.05;;;8.50;99.90;;;;;;5071072;28;20032;-57
2024/02/13 10:48:21;;;;;;;10.27;5.70;;;8.50;99.90;;;;;;5074182;28;20103;-57
2024/02/13 10:50:50;;;;;;;10.93;5.90;;;8.60;99.90;;;;;;5074118;28;20409;-57
2024/02/13 10:53:18;;;;;;;13.73;5.88;;;8.40;99.90;;;;;;5076595;28;20095;-57
2024/02/13 10:55:46;;;;;;;12.70;6.55;;;8.30;99.90;;;;;;5056461;28;20572;-57
2024/02/13 10:58:13;;;;;;;14.13;5.78;;;8.20;99.90;;;;;;5076249;28;20017;-57
2024/02/13 11:00:40;;;;;;;16.63;6.90;;;8.10;99.90;;;;;;5073605;28;20024;-57
2024/02/13 11:03:06;;;;;;;16.92;7.25;;;8.10;99.90;;;;;;5072666;28;20495;-57
2024/02/13 11:05:33;;;;;;;10.55;6.65;;;8.10;99.90;;;;;;5072304;28;20075;-58
2024/02/13 11:07:59;;;;;;;13.07;6.25;;;8.00;99.90;;;;;;5071939;28;20016;-58
2024/02/13 11:10:34;;;;;;;10.93;6.32;;;8.00;99.90;;;;;;5075128;28;20223;-57
2024/02/13 11:13:01;;;;;;;11.65;5.28;;;8.00;99.90;;;;;;5081532;28;20020;-58
2024/02/13 11:15:29;;;;;;;12.95;6.13;;;8.10;99.90;;;;;;5073107;28;20071;-57
2024/02/13 11:17:56;;;;;;;10.27;6.63;;;8.10;99.90;;;;;;5076810;28;20027;-58
2024/02/13 11:20:27;;;;;;;16.13;7.13;;;8.10;99.90;;;;;;5078421;28;20022;-57
2024/02/13 11:22:57;;;;;;;14.10;7.40;;;8.20;99.90;;;;;;5075451;28;20104;-57
2024/02/13 11:25:27;;;;;;;6.60;5.25;;;8.00;99.90;;;;;;5075055;28;20024;-57
2024/02/13 11:27:57;;;;;;;9.15;5.82;;;8.10;99.90;;;;;;5075243;28;20028;-57
2024/02/13 11:30:23;;;;;;;13.95;6.78;;;8.20;99.90;;;;;;5073305;28;20051;-57
2024/02/13 11:32:58;;;;;;;15.13;6.50;;;8.30;99.90;;;;;;5077172;28;20064;-57
2024/02/13 11:35:27;;;;;;;14.60;6.97;;;8.30;99.90;;;;;;5072417;28;20055;-58
2024/02/13 11:37:52;;;;;;;12.43;6.10;;;8.50;99.90;;;;;;5072747;28;20419;-58
2024/02/13 11:40:19;;;;;;;8.23;5.78;;;8.60;99.90;;;;;;5077293;28;20031;-57
2024/02/13 11:42:44;;;;;;;11.90;5.85;;;8.90;99.90;;;;;;5072736;28;20013;-58
2024/02/13 11:45:20;;;;;;;9.15;5.90;;;9.20;99.90;;;;;;5072073;28;20451;-58
2024/02/13 11:47:45;;;;;;;13.93;7.05;;;9.30;99.90;;;;;;5070999;28;20024;-57
2024/02/13 11:50:11;;;;;;;14.88;6.20;;;9.40;99.90;;;;;;5075893;28;20398;-58
2024/02/13 11:52:37;;;;;;;6.40;5.18;;;9.40;99.90;;;;;;5073295;28;20115;-58
2024/02/13 11:55:02;;;;;;;12.52;5.85;;;9.50;99.90;;;;;;5070469;28;20016;-58
2024/02/13 11:57:28;;;;;;;12.60;5.75;;;9.70;99.90;;;;;;5073225;28;20016;-57
2024/02/13 11:59:58;;;;;;;10.77;5.95;;;9.80;99.90;;;;;;5074303;28;20032;-57
2024/02/13 12:02:23;;;;;;;10.57;5.63;;;9.90;99.90;;;;;;5074207;28;20473;-57
2024/02/13 12:04:49;;;;;;;12.43;5.80;;;10.10;99.90;;;;;;5072688;28;20032;-58
2024/02/13 12:07:14;;;;;;;13.45;5.78;;;10.20;99.90;;;;;;5075506;28;20024;-58
2024/02/13 12:09:41;;;;;;;9.70;5.53;;;10.20;99.90;;;;;;5067429;28;20017;-58
2024/02/13 12:12:09;;;;;;;9.63;5.65;;;10.40;99.90;;;;;;5075564;28;20044;-57
2024/02/13 12:14:39;;;;;;;10.23;5.47;;;10.60;99.90;;;;;;5076368;28;20026;-58
2024/02/13 12:17:10;;;;;;;15.05;5.30;;;10.80;99.90;;;;;;5076490;28;20477;-58
2024/02/13 12:19:37;;;;;;;9.27;4.72;;;11.10;99.90;;;;;;5071745;28;20012;-58
2024/02/13 12:22:10;;;;;;;9.68;5.35;;;11.20;99.90;;;;;;5070357;28;20463;-58
2024/02/13 12:24:39;;;;;;;10.27;5.03;;;11.20;99.90;;;;;;5065880;28;20045;-57
2024/02/13 12:27:06;;;;;;;8.68;4.40;;;11.30;99.90;;;;;;5070639;28;20017;-57
2024/02/13 12:29:38;;;;;;;12.02;4.38;;;11.50;99.90;;;;;;5063914;28;20043;-58
2024/02/13 12:32:06;;;;;;;9.73;4.55;;;11.70;99.90;;;;;;5071678;28;20023;-58
2024/02/13 12:34:33;;;;;;;9.48;4.72;;;11.90;99.90;;;;;;5071008;28;20025;-58
2024/02/13 12:37:00;;;;;;;9.02;4.13;;;12.30;99.90;;;;;;5069598;28;20046;-58
2024/02/13 12:39:26;;;;;;;12.82;4.53;;;12.80;99.70;;;;;;5069029;28;20397;-58
2024/02/13 12:41:52;;;;;;;8.70;4.28;;;12.80;99.00;;;;;;5076736;28;20024;-58
2024/02/13 12:44:20;;;;;;;9.20;4.63;;;12.80;98.80;;;;;;5077641;28;20089;-58